Time;durP1;ratioP1;P1;durP2;ratioP2;P2;SDS_P1;SDS_P2;PMS_P1;PMS_P2;Temp;Humidity;BMP_temperature;BMP_pressure;BME280_temperature;BME280_humidity;BME280_pressure;Samples;Min_cycle;Max_cycle;Signal;HPM_P1;HPM_P2
2022/07/22 00:02:17;;;;;;;;;;;;;;;16.39;100.00;102229.16;5052366;28;19925;-57
2022/07/22 00:04:42;;;;;;;;;;;;;;;16.38;100.00;102238.09;5044533;28;19928;-57
2022/07/22 00:07:08;;;;;;;;;;;;;;;16.38;100.00;102241.66;5036778;28;19920;-56
2022/07/22 00:09:33;;;;;;;;;;;;;;;16.37;100.00;102242.59;5052584;28;19917;-58
2022/07/22 00:11:59;;;;;;;;;;;;;;;16.37;100.00;102234.59;5053300;28;19927;-58
2022/07/22 00:14:24;;;;;;;;;;;;;;;16.36;100.00;102231.97;5052344;28;19970;-58
2022/07/22 00:16:49;;;;;;;;;;;;;;;16.37;100.00;102225.72;5045510;28;19952;-58
2022/07/22 00:19:14;;;;;;;;;;;;;;;16.37;100.00;102234.59;5053485;28;19927;-59
2022/07/22 00:21:40;;;;;;;;;;;;;;;16.38;100.00;102230.97;5053437;28;19928;-57
2022/07/22 00:24:05;;;;;;;;;;;;;;;16.40;100.00;102224.69;5052270;28;19928;-57
2022/07/22 00:26:31;;;;;;;;;;;;;;;16.40;100.00;102230.03;5052345;28;19958;-57
2022/07/22 00:28:56;;;;;;;;;;;;;;;16.37;100.00;102223.03;5052307;28;19920;-57
2022/07/22 00:31:21;;;;;;;;;;;;;;;16.37;100.00;102228.38;5053321;28;19921;-57
2022/07/22 00:33:46;;;;;;;;;;;;;;;16.35;100.00;102217.72;5052793;28;20287;-57
2022/07/22 00:36:12;;;;;;;;;;;;;;;16.36;100.00;102221.28;5051893;28;19921;-57
2022/07/22 00:38:38;;;;;;;;;;;;;;;16.32;100.00;102220.56;5051835;28;19913;-57
2022/07/22 00:41:03;;;;;;;;;;;;;;;16.34;100.00;102210.69;5033343;28;20004;-57
2022/07/22 00:43:47;;;;;;;;;;;;;;;16.35;100.00;102212.38;5052194;28;20392;-58
2022/07/22 00:46:12;;;;;;;;;;;;;;;16.36;100.00;102214.13;5051902;28;20364;-57
2022/07/22 00:48:38;;;;;;;;;;;;;;;16.36;100.00;102215.94;5034309;28;19970;-56
2022/07/22 00:51:03;;;;;;;;;;;;;;;16.35;100.00;102209.72;5034178;28;19916;-57
2022/07/22 00:53:28;;;;;;;;;;;;;;;16.32;100.00;102204.53;5033558;28;19985;-57
2022/07/22 00:55:53;;;;;;;;;;;;;;;16.35;100.00;102215.06;5067852;28;19917;-57
2022/07/22 00:58:21;;;;;;;;;;;;;;;16.37;100.00;102215.00;5034269;28;19971;-57
2022/07/22 01:00:46;;;;;;;;;;;;;;;16.37;100.00;102202.50;5034038;28;19927;-57
2022/07/22 01:03:11;;;;;;;;;;;;;;;16.37;100.00;102207.00;5052580;28;19917;-58
2022/07/22 01:05:36;;;;;;;;;;;;;;;16.33;100.00;102206.28;5052012;28;20054;-57
2022/07/22 01:08:04;;;;;;;;;;;;;;;16.34;100.00;102201.78;5051805;28;19917;-57
2022/07/22 01:10:30;;;;;;;;;;;;;;;16.35;100.00;102208.84;5052806;28;19923;-57
2022/07/22 01:12:55;;;;;;;;;;;;;;;16.33;100.00;102198.25;5051590;28;19916;-57
2022/07/22 01:15:20;;;;;;;;;;;;;;;16.31;100.00;102202.78;5068514;28;19951;-58
2022/07/22 01:17:45;;;;;;;;;;;;;;;16.33;100.00;102202.72;5052168;28;19916;-57
2022/07/22 01:20:11;;;;;;;;;;;;;;;16.32;100.00;102193.84;5070451;28;20376;-58
2022/07/22 01:22:36;;;;;;;;;;;;;;;16.32;100.00;102198.31;5070127;28;19939;-58
2022/07/22 01:25:02;;;;;;;;;;;;;;;16.32;100.00;102198.31;5068469;28;19924;-57
2022/07/22 01:27:29;;;;;;;;;;;;;;;16.32;100.00;102207.19;5071490;28;20439;-58
2022/07/22 01:29:54;;;;;;;;;;;;;;;16.32;100.00;102198.31;5063706;28;19920;-58
2022/07/22 01:32:20;;;;;;;;;;;;;;;16.30;100.00;102194.84;5043583;28;19928;-58
2022/07/22 01:34:45;;;;;;;;;;;;;;;16.30;100.00;102200.19;5034618;28;19921;-58
2022/07/22 01:37:11;;;;;;;;;;;;;;;16.28;100.00;102191.38;5033640;28;19924;-58
2022/07/22 01:39:36;;;;;;;;;;;;;;;16.27;100.00;102197.69;5051273;28;19913;-58
2022/07/22 01:42:01;;;;;;;;;;;;;;;16.28;100.00;102199.38;5051237;28;20493;-57
2022/07/22 01:44:26;;;;;;;;;;;;;;;16.27;100.00;102195.84;5050783;28;20447;-58
2022/07/22 01:46:53;;;;;;;;;;;;;;;16.30;100.00;102197.53;5070246;28;19922;-58
2022/07/22 01:49:19;;;;;;;;;;;;;;;16.30;100.00;102194.84;5071371;28;20395;-58
2022/07/22 01:51:44;;;;;;;;;;;;;;;16.30;100.00;102193.03;5071073;28;19924;-58
2022/07/22 01:54:11;;;;;;;;;;;;;;;16.30;100.00;102195.69;5070720;28;20297;-58
2022/07/22 01:56:36;;;;;;;;;;;;;;;16.31;100.00;102193.91;5070418;28;19968;-58
2022/07/22 01:59:01;;;;;;;;;;;;;;;16.28;100.00;102192.25;5074451;28;19920;-58
2022/07/22 02:01:27;;;;;;;;;;;;;;;16.28;100.00;102192.25;5056767;28;19958;-58
2022/07/22 02:03:52;;;;;;;;;;;;;;;16.28;100.00;102183.34;5056958;28;19924;-58
2022/07/22 02:06:17;;;;;;;;;;;;;;;16.28;100.00;102183.34;5064569;28;20398;-58
2022/07/22 02:08:42;;;;;;;;;;;;;;;16.29;100.00;102188.66;5037699;28;19951;-58
2022/07/22 02:11:08;;;;;;;;;;;;;;;16.28;100.00;102184.22;5055079;28;19917;-58
2022/07/22 02:13:33;;;;;;;;;;;;;;;16.28;100.00;102181.56;5054857;28;20440;-57
2022/07/22 02:15:58;;;;;;;;;;;;;;;16.27;100.00;102185.16;5055626;28;19929;-58
2022/07/22 02:18:25;;;;;;;;;;;;;;;16.27;100.00;102185.16;5054523;28;19920;-58
2022/07/22 02:20:50;;;;;;;;;;;;;;;16.26;100.00;102179.91;5038154;28;20372;-58
2022/07/22 02:23:15;;;;;;;;;;;;;;;16.28;100.00;102180.69;5053760;28;19992;-58
2022/07/22 02:25:41;;;;;;;;;;;;;;;16.27;100.00;102185.16;5054075;28;19916;-58
2022/07/22 02:28:07;;;;;;;;;;;;;;;16.28;100.00;102188.69;5054440;28;19962;-58
2022/07/22 02:30:32;;;;;;;;;;;;;;;16.28;100.00;102180.69;5054439;28;19955;-56
2022/07/22 02:32:57;;;;;;;;;;;;;;;16.25;100.00;102178.16;5055029;28;19931;-58
2022/07/22 02:35:23;;;;;;;;;;;;;;;16.24;100.00;102179.97;5054218;28;19932;-58
2022/07/22 02:37:48;;;;;;;;;;;;;;;16.26;100.00;102179.91;5055373;28;20409;-58
2022/07/22 02:40:14;;;;;;;;;;;;;;;16.24;100.00;102171.97;5053528;28;19941;-58
2022/07/22 02:42:39;;;;;;;;;;;;;;;16.20;100.00;102168.56;5053489;28;19927;-58
2022/07/22 02:45:04;;;;;;;;;;;;;;;16.19;100.00;102168.63;5055342;28;21748;-57
2022/07/22 02:47:29;;;;;;;;;;;;;;;16.19;100.00;102168.63;5037095;28;20334;-58
2022/07/22 02:49:55;;;;;;;;;;;;;;;16.17;100.00;102166.00;5036093;28;20376;-58
2022/07/22 02:52:20;;;;;;;;;;;;;;;16.16;100.00;102158.97;5053756;28;20342;-58
2022/07/22 02:54:45;;;;;;;;;;;;;;;16.16;100.00;102158.06;5036251;28;20007;-58
2022/07/22 02:57:11;;;;;;;;;;;;;;;16.17;100.00;102162.50;5054159;28;19927;-58
2022/07/22 02:59:36;;;;;;;;;;;;;;;16.16;100.00;102158.06;5070469;28;19920;-58
2022/07/22 03:02:01;;;;;;;;;;;;;;;16.17;100.00;102157.16;5073895;28;19939;-57
2022/07/22 03:04:26;;;;;;;;;;;;;;;16.17;100.00;102157.16;5086106;28;19912;-57
2022/07/22 03:06:52;;;;;;;;;;;;;;;16.15;100.00;102165.25;5052475;28;19956;-58
2022/07/22 03:09:17;;;;;;;;;;;;;;;16.11;100.00;102160.09;5043382;28;19920;-58
2022/07/22 03:11:42;;;;;;;;;;;;;;;16.12;100.00;102160.03;5054677;28;19917;-59
2022/07/22 03:14:08;;;;;;;;;;;;;;;16.14;100.00;102160.84;5053776;28;19920;-56
2022/07/22 03:16:33;;;;;;;;;;;;;;;16.16;100.00;102164.31;5053478;28;19917;-56
2022/07/22 03:18:58;;;;;;;;;;;;;;;16.16;100.00;102155.41;5042811;28;20655;-56
2022/07/22 03:21:23;;;;;;;;;;;;;;;16.14;100.00;102165.28;5073219;28;19920;-57
2022/07/22 03:23:53;;;;;;;;;;;;;;;16.14;100.00;102168.84;5064561;28;19963;-51
2022/07/22 03:26:18;;;;;;;;;;;;;;;16.12;100.00;102169.84;5038500;28;19917;-56
2022/07/22 03:28:44;;;;;;;;;;;;;;;16.12;100.00;102161.84;5043231;28;20018;-58
2022/07/22 03:31:09;;;;;;;;;;;;;;;16.10;100.00;102166.38;5053290;28;19939;-57
2022/07/22 03:33:34;;;;;;;;;;;;;;;16.07;100.00;102171.88;5052317;28;19967;-57
2022/07/22 03:36:00;;;;;;;;;;;;;;;16.05;100.00;102170.13;5054155;28;19935;-57
2022/07/22 03:38:25;;;;;;;;;;;;;;;16.02;100.00;102167.63;5053126;28;20003;-58
2022/07/22 03:40:50;;;;;;;;;;;;;;;16.04;100.00;102167.56;5019733;28;19925;-57
2022/07/22 03:43:15;;;;;;;;;;;;;;;16.02;100.00;102175.66;5053020;28;19921;-57
2022/07/22 03:45:41;;;;;;;;;;;;;;;16.04;100.00;102163.06;5053080;28;19958;-57
2022/07/22 03:48:06;;;;;;;;;;;;;;;16.05;100.00;102164.81;5052813;28;19920;-57
2022/07/22 03:50:31;;;;;;;;;;;;;;;16.07;100.00;102159.38;5044521;28;19935;-56
2022/07/22 03:52:56;;;;;;;;;;;;;;;16.08;100.00;102161.13;5072540;28;19925;-57
2022/07/22 03:55:21;;;;;;;;;;;;;;;16.09;100.00;102164.66;5072640;28;19917;-57
2022/07/22 03:57:47;;;;;;;;;;;;;;;16.09;100.00;102161.97;5072508;28;19927;-57
2022/07/22 04:00:12;;;;;;;;;;;;;;;16.13;100.00;102163.59;5068925;28;20050;-58
2022/07/22 04:02:37;;;;;;;;;;;;;;;16.12;100.00;102173.38;5052716;28;19943;-58
2022/07/22 04:05:03;;;;;;;;;;;;;;;16.16;100.00;102169.66;5018025;28;20360;-57
2022/07/22 04:07:28;;;;;;;;;;;;;;;16.18;100.00;102172.25;5052520;28;19917;-58
2022/07/22 04:10:04;;;;;;;;;;;;;;;16.18;100.00;102169.56;5052295;28;19917;-58
2022/07/22 04:12:30;;;;;;;;;;;;;;;16.20;100.00;102176.56;5068906;28;19981;-56
2022/07/22 04:14:55;;;;;;;;;;;;;;;16.21;100.00;102175.66;5072575;28;19958;-55
2022/07/22 04:17:20;;;;;;;;;;;;;;;16.21;100.00;102175.66;5071705;28;19925;-58
2022/07/22 04:19:46;;;;;;;;;;;;;;;16.25;100.00;102176.34;5071573;28;19916;-58
2022/07/22 04:22:11;;;;;;;;;;;;;;;16.25;100.00;102173.66;5057293;28;20376;-58
2022/07/22 04:24:36;;;;;;;;;;;;;;;16.28;100.00;102173.53;5053399;28;19960;-58
2022/07/22 04:27:01;;;;;;;;;;;;;;;16.31;100.00;102173.38;5034517;28;19960;-58
2022/07/22 04:29:27;;;;;;;;;;;;;;;16.35;100.00;102166.94;5052147;28;19913;-58
2022/07/22 04:31:52;;;;;;;;;;;;;;;16.39;100.00;102165.00;5053107;28;19916;-58
2022/07/22 04:34:17;;;;;;;;;;;;;;;16.41;100.00;102168.47;5052338;28;19917;-58
2022/07/22 04:36:42;;;;;;;;;;;;;;;16.41;100.00;102163.13;5052385;28;19928;-57
2022/07/22 04:39:08;;;;;;;;;;;;;;;16.43;100.00;102161.22;5052676;28;19971;-58
2022/07/22 04:41:33;;;;;;;;;;;;;;;16.44;100.00;102154.94;5035116;28;20011;-57
2022/07/22 04:43:59;;;;;;;;;;;;;;;16.50;100.00;102151.97;5052283;28;19924;-57
2022/07/22 04:46:24;;;;;;;;;;;;;;;16.53;100.00;102157.19;5052375;28;19924;-57
2022/07/22 04:48:49;;;;;;;;;;;;;;;16.60;100.00;102154.19;5051753;28;20362;-57
2022/07/22 04:51:14;;;;;;;;;;;;;;;16.64;100.00;102162.00;5034609;28;19931;-57
2022/07/22 04:53:40;;;;;;;;;;;;;;;16.68;100.00;102168.91;5068431;28;19917;-57
2022/07/22 04:56:05;;;;;;;;;;;;;;;16.72;100.00;102156.25;5070626;28;20464;-57
2022/07/22 04:58:30;;;;;;;;;;;;;;;16.75;100.00;102160.59;5071771;28;20330;-57
2022/07/22 05:00:56;;;;;;;;;;;;;;;16.73;100.00;102160.69;5071750;28;19979;-57
2022/07/22 05:03:21;;;;;;;;;;;;;;;16.73;100.00;102162.47;5061496;28;19924;-57
2022/07/22 05:05:46;;;;;;;;;;;;;;;16.78;100.00;102169.34;5017062;28;19917;-57
2022/07/22 05:08:11;;;;;;;;;;;;;;;16.82;100.00;102165.56;5051725;28;20384;-58
2022/07/22 05:10:37;;;;;;;;;;;;;;;16.88;100.00;102161.72;5051209;28;20372;-58
2022/07/22 05:13:02;;;;;;;;;;;;;;;16.93;100.00;102164.19;5052246;28;19917;-58
2022/07/22 05:15:27;;;;;;;;;;;;;;;17.00;100.00;102163.78;5052557;28;19928;-58
2022/07/22 05:17:52;;;;;;;;;;;;;;;17.10;100.00;102156.16;5051733;28;19917;-58
2022/07/22 05:20:18;;;;;;;;;;;;;;;17.14;100.00;102159.56;5051523;28;19924;-59
2022/07/22 05:22:43;;;;;;;;;;;;;;;17.18;100.00;102161.97;5033723;28;19924;-58
2022/07/22 05:25:08;;;;;;;;;;;;;;;17.27;99.76;102154.44;5070945;28;19929;-58
2022/07/22 05:27:34;;;;;;;;;;;;;;;17.34;98.98;102147.78;5051396;28;19924;-58
2022/07/22 05:29:59;;;;;;;;;;;;;;;17.28;98.63;102158.84;5052588;28;19924;-58
2022/07/22 05:32:24;;;;;;;;;;;;;;;17.24;99.79;102155.44;5055536;28;19919;-58
2022/07/22 05:34:49;;;;;;;;;;;;;;;17.25;96.80;102146.47;5056380;28;19920;-58
2022/07/22 05:37:15;;;;;;;;;;;;;;;17.19;98.79;102149.47;5054922;28;19932;-58
2022/07/22 05:39:41;;;;;;;;;;;;;;;17.13;100.00;102164.03;5053560;28;19924;-58
2022/07/22 05:42:07;;;;;;;;;;;;;;;17.15;99.76;102161.28;5056295;28;19920;-58
2022/07/22 05:44:32;;;;;;;;;;;;;;;17.09;99.11;102162.47;5056178;28;19974;-58
2022/07/22 05:46:57;;;;;;;;;;;;;;;17.11;97.56;102162.38;5020863;28;19939;-57
2022/07/22 05:49:24;;;;;;;;;;;;;;;17.15;98.16;102167.50;5053744;28;20003;-58
2022/07/22 05:51:49;;;;;;;;;;;;;;;17.29;99.03;102165.91;5053304;28;19924;-58
2022/07/22 05:54:15;;;;;;;;;;;;;;;17.29;98.54;102158.75;5053687;28;19921;-58
2022/07/22 05:56:40;;;;;;;;;;;;;;;17.35;97.85;102157.56;5074839;28;19924;-58
2022/07/22 05:59:05;;;;;;;;;;;;;;;17.40;97.57;102160.84;5074982;28;19917;-58
2022/07/22 06:01:30;;;;;;;;;;;;;;;17.54;97.14;102165.47;5074647;28;19946;-58
2022/07/22 06:03:55;;;;;;;;;;;;;;;17.63;96.32;102158.78;5056767;28;19913;-58
2022/07/22 06:06:21;;;;;;;;;;;;;;;17.77;96.60;102158.88;5068294;28;19931;-58
2022/07/22 06:08:46;;;;;;;;;;;;;;;17.94;96.60;102154.47;5048336;28;19929;-58
2022/07/22 06:11:11;;;;;;;;;;;;;;;18.05;96.79;102157.41;5053087;28;19917;-58
2022/07/22 06:13:37;;;;;;;;;;;;;;;18.19;96.08;102167.38;5054954;28;19924;-58
2022/07/22 06:16:02;;;;;;;;;;;;;;;18.23;95.27;102158.19;5064919;28;19921;-58
2022/07/22 06:18:27;;;;;;;;;;;;;;;18.21;94.23;102153.88;5058185;28;20364;-58
2022/07/22 06:20:52;;;;;;;;;;;;;;;18.28;93.46;102150.75;5054856;28;19974;-58
2022/07/22 06:23:18;;;;;;;;;;;;;;;18.34;92.70;102155.78;5054517;28;19913;-58
2022/07/22 06:25:43;;;;;;;;;;;;;;;18.39;92.11;102142.13;5069736;28;19924;-59
2022/07/22 06:28:09;;;;;;;;;;;;;;;18.48;92.74;102144.25;5051229;28;20344;-59
2022/07/22 06:30:34;;;;;;;;;;;;;;;18.60;92.78;102145.34;5053894;28;19923;-59
2022/07/22 06:33:00;;;;;;;;;;;;;;;18.69;92.13;102141.28;5054158;28;20369;-59
2022/07/22 06:35:25;;;;;;;;;;;;;;;18.75;91.12;102153.50;5061817;28;19924;-57
2022/07/22 06:37:51;;;;;;;;;;;;;;;18.93;91.52;102162.31;5046876;28;19928;-58
2022/07/22 06:40:16;;;;;;;;;;;;;;;18.96;91.01;102170.16;5067462;28;19952;-58
2022/07/22 06:42:41;;;;;;;;;;;;;;;18.97;90.91;102163.84;5068149;28;19923;-58
2022/07/22 06:45:07;;;;;;;;;;;;;;;18.91;91.38;102165.06;5055744;28;19963;-58
2022/07/22 06:47:35;;;;;;;;;;;;;;;18.90;91.76;102166.03;5053001;28;20368;-58
2022/07/22 06:50:00;;;;;;;;;;;;;;;18.82;93.14;102161.09;5048826;28;19921;-58
2022/07/22 06:55:42;;;;;;;;;;;;;;;19.01;90.40;102164.53;5038096;22;19959;-59
2022/07/22 06:58:07;;;;;;;;;;;;;;;19.09;91.35;102159.56;5055902;22;19951;-56
2022/07/22 07:00:32;;;;;;;;;;;;;;;19.16;90.12;102158.25;5052136;28;19975;-58
2022/07/22 07:02:59;;;;;;;;;;;;;;;19.18;90.84;102160.81;5053358;28;19913;-58
2022/07/22 07:05:24;;;;;;;;;;;;;;;19.08;89.59;102160.50;5055655;28;19917;-58
2022/07/22 07:07:50;;;;;;;;;;;;;;;19.08;88.74;102169.44;5053497;28;20342;-58
2022/07/22 07:10:15;;;;;;;;;;;;;;;19.02;88.62;102166.25;5052881;28;20427;-59
2022/07/22 07:12:40;;;;;;;;;;;;;;;18.87;90.33;102162.63;5052671;28;19913;-58
2022/07/22 07:15:06;;;;;;;;;;;;;;;18.96;91.29;102164.78;5053282;28;19916;-58
2022/07/22 07:17:31;;;;;;;;;;;;;;;18.95;89.99;102166.63;5053162;28;20376;-58
2022/07/22 07:19:56;;;;;;;;;;;;;;;19.01;89.15;102169.91;5033132;28;19932;-58
2022/07/22 07:22:21;;;;;;;;;;;;;;;19.05;90.49;102174.97;5052966;28;19923;-58
2022/07/22 07:24:47;;;;;;;;;;;;;;;19.08;89.22;102168.56;5035260;28;19917;-58
2022/07/22 07:27:12;;;;;;;;;;;;;;;19.02;88.04;102167.13;5052969;28;19917;-58
2022/07/22 07:29:37;;;;;;;;;;;;;;;18.90;87.81;102163.34;5034986;28;20387;-58
2022/07/22 07:32:03;;;;;;;;;;;;;;;18.69;87.67;102164.56;5052961;28;19932;-58
2022/07/22 07:34:28;;;;;;;;;;;;;;;18.71;90.54;102165.31;5052602;28;19920;-58
2022/07/22 07:36:53;;;;;;;;;;;;;;;18.65;88.44;102170.09;5034715;28;20353;-58
2022/07/22 07:39:18;;;;;;;;;;;;;;;18.67;89.00;102167.34;5052549;28;20383;-58
2022/07/22 07:41:44;;;;;;;;;;;;;;;18.86;88.88;102164.44;5051590;28;19917;-58
2022/07/22 07:44:09;;;;;;;;;;;;;;;18.99;88.31;102168.16;5046311;28;20024;-58
2022/07/22 07:46:34;;;;;;;;;;;;;;;19.07;88.99;102177.59;5052049;28;20339;-58
2022/07/22 07:48:59;;;;;;;;;;;;;;;19.06;87.02;102167.81;5044728;28;19944;-58
2022/07/22 07:51:24;;;;;;;;;;;;;;;19.05;87.48;102166.91;5046487;28;19924;-58
2022/07/22 07:53:50;;;;;;;;;;;;;;;19.21;84.63;102169.56;5044457;28;20149;-58
2022/07/22 07:56:16;;;;;;;;;;;;;;;19.35;84.37;102168.72;5050648;28;19925;-58
2022/07/22 07:58:41;;;;;;;;;;;;;;;19.38;85.79;102157.78;5049246;28;20442;-58
2022/07/22 08:01:06;;;;;;;;;;;;;;;19.39;86.00;102159.53;5052084;28;20008;-58
2022/07/22 08:03:32;;;;;;;;;;;;;;;19.51;82.82;102159.72;5052493;28;19955;-58
2022/07/22 08:05:59;;;;;;;;;;;;;;;19.67;82.46;102155.13;5034058;28;19917;-58
2022/07/22 08:08:24;;;;;;;;;;;;;;;19.79;81.96;102151.66;5027398;28;19947;-58
2022/07/22 08:10:50;;;;;;;;;;;;;;;20.12;79.99;102155.03;5048086;28;19921;-58
2022/07/22 08:13:15;;;;;;;;;;;;;;;20.26;77.50;102165.72;5033814;28;20011;-58
2022/07/22 08:15:40;;;;;;;;;;;;;;;20.35;76.71;102158.91;5033762;28;19917;-59
2022/07/22 08:18:05;;;;;;;;;;;;;;;20.34;75.95;102159.00;5051021;28;19935;-58
2022/07/22 08:20:31;;;;;;;;;;;;;;;20.19;79.03;102150.09;5033705;28;19920;-58
2022/07/22 08:22:56;;;;;;;;;;;;;;;20.19;78.04;102156.31;5051737;28;19917;-58
2022/07/22 08:25:22;;;;;;;;;;;;;;;20.34;77.13;102156.31;5051360;28;20004;-58
2022/07/22 08:27:48;;;;;;;;;;;;;;;20.77;75.92;102143.59;5032140;28;20394;-58
2022/07/22 08:30:14;;;;;;;;;;;;;;;20.94;75.89;102146.97;5051725;28;19920;-58
2022/07/22 08:32:39;;;;;;;;;;;;;;;21.22;73.61;102140.53;5051651;28;19913;-58
2022/07/22 08:35:05;;;;;;;;;;;;;;;21.59;72.44;102129.88;5051004;28;19916;-58
2022/07/22 08:37:30;;;;;;;;;;;;;;;21.84;70.72;102140.75;5051633;28;19954;-59
2022/07/22 08:39:55;;;;;;;;;;;;;;;22.15;69.19;102133.09;5050966;28;19917;-59
2022/07/22 08:42:22;;;;;;;;;;;;;;;22.18;68.88;102133.75;5033234;28;20003;-59
2022/07/22 08:44:48;;;;;;;;;;;;;;;22.34;67.07;102140.69;5033941;28;20019;-59
2022/07/22 08:47:13;;;;;;;;;;;;;;;22.14;66.82;102139.50;5051224;28;20011;-59
2022/07/22 08:49:38;;;;;;;;;;;;;;;21.89;65.87;102146.66;5033655;28;20041;-58
2022/07/22 08:52:04;;;;;;;;;;;;;;;21.82;66.63;102132.75;5061135;28;20371;-58
2022/07/22 08:54:29;;;;;;;;;;;;;;;21.86;66.33;102123.47;5055427;28;19923;-58
2022/07/22 08:56:54;;;;;;;;;;;;;;;22.57;64.35;102130.91;5051493;28;20400;-58
2022/07/22 08:59:19;;;;;;;;;;;;;;;22.67;59.40;102134.63;5033489;28;19916;-59
2022/07/22 09:02:01;;;;;;;;;;;;;;;22.14;61.12;102129.56;5033279;28;19919;-58
2022/07/22 09:04:26;;;;;;;;;;;;;;;21.99;63.89;102123.44;5052235;28;20387;-58
2022/07/22 09:06:51;;;;;;;;;;;;;;;22.29;60.46;102132.97;5038024;28;19916;-58
2022/07/22 09:09:16;;;;;;;;;;;;;;;22.65;57.67;102139.28;5055638;28;20384;-58
2022/07/22 09:11:42;;;;;;;;;;;;;;;22.06;59.15;102127.41;5059080;28;20376;-58
2022/07/22 09:14:07;;;;;;;;;;;;;;;22.13;60.90;102121.59;5054893;28;19925;-58
2022/07/22 09:16:42;;;;;;;;;;;;;;;22.69;59.45;102113.78;5055422;28;19987;-58
2022/07/22 09:19:08;;;;;;;;;;;;;;;23.15;57.71;102117.50;5055198;28;19927;-58
2022/07/22 09:21:37;;;;;;;;;;;;;;;23.21;55.72;102113.44;5054540;28;19917;-58
2022/07/22 09:24:06;;;;;;;;;;;;;;;23.55;51.29;102114.31;5055101;28;19940;-58
2022/07/22 09:26:35;;;;;;;;;;;;;;;23.94;49.57;102110.38;5055279;28;19913;-58
2022/07/22 09:29:01;;;;;;;;;;;;;;;24.11;51.98;102125.25;5055127;28;19913;-58
2022/07/22 09:31:27;;;;;;;;;;;;;;;25.11;48.73;102124.09;5054897;28;19923;-58
2022/07/22 09:33:53;;;;;;;;;;;;;;;25.33;46.01;102125.78;5054725;28;20000;-59
2022/07/22 09:36:19;;;;;;;;;;;;;;;25.30;45.84;102131.50;5054721;28;19989;-58
2022/07/22 09:38:44;;;;;;;;;;;;;;;24.04;51.26;102124.88;5055254;28;20380;-54
2022/07/22 09:41:09;;;;;;;;;;;;;;;23.87;49.07;102129.78;5055098;28;19916;-58
2022/07/22 09:43:35;;;;;;;;;;;;;;;23.30;51.42;102136.19;5053804;28;19916;-51
2022/07/22 09:46:00;;;;;;;;;;;;;;;22.90;54.10;102130.19;5054542;28;19916;-54
2022/07/22 09:48:26;;;;;;;;;;;;;;;22.66;54.23;102135.63;5054801;28;19917;-59
2022/07/22 09:50:52;;;;;;;;;;;;;;;22.40;56.70;102140.28;5054466;28;19917;-58
2022/07/22 09:53:18;;;;;;;;;;;;;;;22.50;55.76;102146.72;5006173;28;20273;-58
2022/07/22 09:55:44;;;;;;;;;;;;;;;22.54;55.69;102139.25;5053255;28;19913;-58
2022/07/22 09:58:09;;;;;;;;;;;;;;;23.57;53.13;102141.25;5051154;28;19932;-58
2022/07/22 10:00:35;;;;;;;;;;;;;;;23.97;53.38;102142.63;5063681;28;20116;-58
2022/07/22 10:03:02;;;;;;;;;;;;;;;23.82;53.42;102148.25;5054463;28;19974;-58
2022/07/22 10:05:29;;;;;;;;;;;;;;;23.37;53.84;102140.13;5054196;28;20383;-58
2022/07/22 10:07:54;;;;;;;;;;;;;;;23.40;51.45;102137.16;5022774;28;20031;-58
2022/07/22 10:10:21;;;;;;;;;;;;;;;23.22;51.79;102143.06;5054461;28;20424;-58
2022/07/22 10:12:50;;;;;;;;;;;;;;;22.60;54.53;102138.78;5054677;28;19923;-58
2022/07/22 10:15:16;;;;;;;;;;;;;;;22.42;54.88;102138.34;5051995;28;19921;-58
2022/07/22 10:17:43;;;;;;;;;;;;;;;22.40;55.97;102142.97;5046592;28;19921;-58
2022/07/22 10:20:09;;;;;;;;;;;;;;;22.43;55.33;102137.38;5035491;28;20387;-59
2022/07/22 10:22:46;;;;;;;;;;;;;;;22.57;55.92;102139.88;5053918;28;19923;-59
2022/07/22 10:25:13;;;;;;;;;;;;;;;22.33;55.90;102141.66;5049827;28;20349;-58
2022/07/22 10:27:52;;;;;;;;;;;;;;;22.21;60.27;102136.22;5053837;28;20019;-58
2022/07/22 10:30:18;;;;;;;;;;;;;;;22.65;56.33;102144.69;5049207;28;20395;-58
2022/07/22 10:32:44;;;;;;;;;;;;;;;22.65;56.30;102150.09;5053861;28;19952;-58
2022/07/22 10:35:09;;;;;;;;;;;;;;;22.82;54.56;102146.09;5053255;28;19963;-58
2022/07/22 10:37:35;;;;;;;;;;;;;;;22.75;55.17;102139.47;5041511;28;19928;-58
2022/07/22 10:40:09;;;;;;;;;;;;;;;22.88;58.75;102151.03;5062754;28;19979;-58
2022/07/22 10:42:53;;;;;;;;;;;;;;;23.18;52.07;102160.47;5064247;28;20020;-58
2022/07/22 10:45:18;;;;;;;;;;;;;;;22.93;52.67;102150.69;5053874;28;19952;-58
2022/07/22 10:47:53;;;;;;;;;;;;;;;22.83;54.52;102142.44;5053489;28;20399;-58
2022/07/22 10:50:39;;;;;;;;;;;;;;;22.67;54.14;102140.03;5052966;28;19928;-58
2022/07/22 10:53:08;;;;;;;;;;;;;;;22.19;55.58;102132.78;5051949;28;19917;-58
2022/07/22 10:55:34;;;;;;;;;;;;;;;22.55;57.04;102130.16;5053621;28;19912;-58
2022/07/22 10:58:00;;;;;;;;;;;;;;;22.99;56.42;102128.63;5052416;28;19925;-58
2022/07/22 11:00:26;;;;;;;;;;;;;;;23.48;52.94;102113.13;5053418;28;19921;-58
2022/07/22 11:02:51;;;;;;;;;;;;;;;24.27;49.87;102114.00;5052826;28;19917;-58
2022/07/22 11:05:32;;;;;;;;;;;;;;;24.98;45.77;102097.22;5053190;28;19999;-58
2022/07/22 11:07:57;;;;;;;;;;;;;;;25.77;43.78;102106.59;5045588;28;19927;-58
2022/07/22 11:10:22;;;;;;;;;;;;;;;25.66;45.19;102099.44;5053414;28;20019;-58
2022/07/22 11:12:49;;;;;;;;;;;;;;;26.27;42.36;102100.31;5052392;28;19925;-59
2022/07/22 11:15:14;;;;;;;;;;;;;;;26.63;40.24;102106.88;5035306;28;19913;-58
2022/07/22 11:17:40;;;;;;;;;;;;;;;26.22;43.12;102098.00;5052702;28;19920;-58
2022/07/22 11:20:07;;;;;;;;;;;;;;;25.93;43.21;102095.22;5052786;28;19920;-59
2022/07/22 11:22:32;;;;;;;;;;;;;;;25.05;45.55;102106.50;5052657;28;19913;-59
2022/07/22 11:25:00;;;;;;;;;;;;;;;24.97;46.90;102106.34;5053208;28;20403;-58
2022/07/22 11:27:25;;;;;;;;;;;;;;;24.27;48.31;102114.00;5051434;28;20322;-59
2022/07/22 11:29:52;;;;;;;;;;;;;;;23.68;48.54;102116.03;5051029;28;20003;-58
2022/07/22 11:32:18;;;;;;;;;;;;;;;23.36;50.87;102116.78;5052202;28;19925;-58
2022/07/22 11:34:46;;;;;;;;;;;;;;;23.43;48.94;102100.94;5051934;28;20422;-58
2022/07/22 11:37:12;;;;;;;;;;;;;;;23.66;47.91;102091.00;5052781;28;19962;-58
2022/07/22 11:39:37;;;;;;;;;;;;;;;23.58;52.23;102088.88;5052688;28;19995;-58
2022/07/22 11:42:03;;;;;;;;;;;;;;;24.87;48.29;102090.00;5035027;28;19912;-58
2022/07/22 11:44:29;;;;;;;;;;;;;;;25.59;44.29;102079.25;5034114;28;19917;-58
2022/07/22 11:46:58;;;;;;;;;;;;;;;25.56;43.69;102076.84;5034660;28;19917;-58
2022/07/22 11:49:24;;;;;;;;;;;;;;;25.26;44.12;102062.28;5052502;28;20116;-58
2022/07/22 11:51:50;;;;;;;;;;;;;;;24.61;45.37;102051.59;5054540;28;19917;-58
2022/07/22 11:54:15;;;;;;;;;;;;;;;24.64;45.96;102043.22;5051730;28;19926;-58
2022/07/22 11:56:41;;;;;;;;;;;;;;;24.63;47.67;102045.06;5033418;28;20008;-57
2022/07/22 11:59:08;;;;;;;;;;;;;;;24.79;46.28;102047.31;5052048;28;19917;-58
2022/07/22 12:01:36;;;;;;;;;;;;;;;24.88;46.42;102047.53;5051384;28;19923;-59
2022/07/22 12:04:05;;;;;;;;;;;;;;;24.63;44.71;102063.13;5049127;28;20340;-58
2022/07/22 12:06:34;;;;;;;;;;;;;;;24.43;45.99;102057.59;5050102;28;19913;-58
2022/07/22 12:09:07;;;;;;;;;;;;;;;24.13;47.23;102070.03;5051900;28;19913;-58
2022/07/22 12:11:33;;;;;;;;;;;;;;;23.54;47.86;102058.56;5051148;28;20019;-58
2022/07/22 12:14:04;;;;;;;;;;;;;;;23.63;50.19;102066.88;5050978;28;20364;-56
2022/07/22 12:16:30;;;;;;;;;;;;;;;23.67;47.08;102074.63;5051402;28;19921;-58
2022/07/22 12:19:01;;;;;;;;;;;;;;;23.80;47.40;102068.22;5031549;28;19978;-58
2022/07/22 12:21:27;;;;;;;;;;;;;;;23.46;47.19;102062.84;5051397;28;20372;-58
2022/07/22 12:24:03;;;;;;;;;;;;;;;23.62;47.65;102065.16;5048785;28;20270;-57
2022/07/22 12:26:47;;;;;;;;;;;;;;;24.01;47.23;102054.81;5047478;28;19962;-58
2022/07/22 12:29:17;;;;;;;;;;;;;;;24.36;45.48;102053.66;5050309;28;19928;-58
2022/07/22 12:31:46;;;;;;;;;;;;;;;24.67;43.90;102056.53;5051409;28;19913;-59